Hicksville, OH

11:02 AM EST on December 08, 2016 (GMT -0500)
Hicksville | | Change Station

Elev 774 ft 41.30 °N, 84.76 °W | Updated 1 minute ago

Overcast
Overcast
25.3 °F
Feels Like 25 °F
N
2.7
Wind Variable Wind from West
Gusts 6.3 mph

Today
High -- | Low -- °F
--% Chance of Precip.
Yesterday
High -- | Low -- °F
Precip. -- in
Pressure 30.20 in
Visibility 7.0 miles
Clouds Scattered Clouds 1700 ft
Overcast 3100 ft
Windchill 25 °F
Dew Point 25 °F
Humidity 99%
Rainfall 0.00 in
Snow Depth Not available.
7:52 AM 5:09 PM
Waxing Gibbous, 64% visible
METAR KGWB 081555Z AUTO 24012G22KT 7SM -SN SCT017 OVC031 M05/M09 A3020 RMK AO2
Pressure 30.20 in
Visibility 7.0 miles
Clouds Scattered Clouds 1700 ft
Overcast 3100 ft
Windchill 25 °F
Dew Point 25 °F
Humidity 99%
Rainfall 0.00 in
Snow Depth Not available.
7:52 AM 5:09 PM
Waxing Gibbous, 64% visible
METAR KGWB 081555Z AUTO 24012G22KT 7SM -SN SCT017 OVC031 M05/M09 A3020 RMK AO2

10-Day Weather Forecast

Almanac

Astronomy

Dec. 08, 2016 Rise Set
Actual Time
Civil Twilight
Nautical Twilight
Astronomical Twilight
Moon
Length of Visible Light
Length of Day
Tomorrow will be .
, % of the Moon is Illuminated

Today's Extremes

State Highs State Lows

Community

WunderPhotos

Upload Photos

1,956,274 photos uploaded!

WunderBlog® & News

Nearby

Air Quality

  Air Quality AQ Index Pollutant
Not available.

Snow Depth

Station Depth Elevation

Earthquake Activity

City Distance Mag. Time & Date
Minimum magnitude displayed is 2.5.

Coastal Water Temperatures

Place Temperature

Stations

Nearby Weather Stations

Station Location Temp. Windchill Dew Point Humidity Wind Precip. Elev Updated Type
                   

Watches & Warnings

There are currently no watches in effect.